Time;durP1;ratioP1;P1;durP2;ratioP2;P2;SDS_P1;SDS_P2;PMS_P1;PMS_P2;Temp;Humidity;BMP_temperature;BMP_pressure;BME280_temperature;BME280_humidity;BME280_pressure;Samples;Min_cycle;Max_cycle;Signal;HPM_P1;HPM_P2
2022/07/19 00:00:07;;;;;;;4.10;3.80;;;26.70;1.00;;;;;;5090353;28;20201;-75
2022/07/19 00:02:34;;;;;;;3.95;3.65;;;26.70;1.00;;;;;;5090608;28;20208;-75
2022/07/19 00:05:01;;;;;;;3.67;3.38;;;26.70;1.00;;;;;;5090433;28;20205;-71
2022/07/19 00:07:28;;;;;;;4.97;3.55;;;26.70;1.00;;;;;;5090960;28;20210;-72
2022/07/19 00:09:55;;;;;;;4.10;3.80;;;26.60;1.00;;;;;;5090556;28;20665;-74
2022/07/19 00:12:22;;;;;;;4.65;3.83;;;26.60;1.00;;;;;;5090124;28;20225;-73
2022/07/19 00:14:50;;;;;;;4.28;3.95;;;26.60;1.00;;;;;;5090462;28;20545;-73
2022/07/19 00:17:17;;;;;;;3.92;3.53;;;26.40;1.00;;;;;;5090138;28;20229;-75
2022/07/19 00:19:44;;;;;;;3.15;2.95;;;26.40;1.00;;;;;;5090177;28;20206;-72
2022/07/19 00:22:11;;;;;;;3.60;3.30;;;26.30;1.00;;;;;;5090147;28;20201;-75
2022/07/19 00:24:38;;;;;;;3.65;3.45;;;26.40;1.00;;;;;;5090475;28;20255;-75
2022/07/19 00:27:05;;;;;;;4.13;3.83;;;26.40;1.00;;;;;;5090190;28;20209;-75
2022/07/19 00:29:32;;;;;;;3.67;3.35;;;26.40;1.50;;;;;;5090712;28;20210;-77
2022/07/19 00:32:03;;;;;;;4.30;4.00;;;26.30;23.40;;;;;;5090636;28;20205;-76
2022/07/19 00:34:30;;;;;;;3.83;3.53;;;26.10;2.80;;;;;;5090411;28;20683;-75
2022/07/19 00:36:57;;;;;;;4.15;3.60;;;26.10;3.70;;;;;;5090164;28;20230;-76
2022/07/19 00:39:24;;;;;;;3.25;3.05;;;26.10;3.30;;;;;;5090238;28;20209;-78
2022/07/19 00:41:51;;;;;;;3.58;3.28;;;26.20;4.50;;;;;;5090307;28;20254;-76
2022/07/19 00:44:22;;;;;;;5.28;3.75;;;26.10;4.60;;;;;;5085452;28;20206;-77
2022/07/19 00:46:49;;;;;;;4.07;3.78;;;26.10;5.40;;;;;;5081271;28;20205;-76
2022/07/19 00:49:18;;;;;;;4.55;3.83;;;26.10;5.70;;;;;;5089842;28;20201;-73
2022/07/19 00:51:46;;;;;;;4.40;4.10;;;26.10;7.00;;;;;;5090195;28;20255;-73
2022/07/19 00:54:14;;;;;;;4.18;3.88;;;26.00;6.10;;;;;;5093316;28;20254;-74
2022/07/19 00:56:43;;;;;;;3.95;3.58;;;25.90;7.30;;;;;;5093899;28;20212;-75
2022/07/19 00:59:11;;;;;;;4.57;4.18;;;25.90;8.00;;;;;;5093327;28;20748;-75
2022/07/19 01:01:38;;;;;;;4.47;4.07;;;25.90;8.40;;;;;;5094247;28;20201;-75
2022/07/19 01:04:05;;;;;;;4.80;4.50;;;25.90;9.40;;;;;;5093370;28;20263;-75
2022/07/19 01:06:34;;;;;;;5.35;4.03;;;25.90;9.70;;;;;;5093695;28;20209;-72
2022/07/19 01:09:02;;;;;;;4.18;3.88;;;25.80;10.30;;;;;;5094113;28;20209;-70
2022/07/19 01:11:29;;;;;;;3.80;3.50;;;25.90;10.00;;;;;;5093797;28;20255;-73
2022/07/19 01:13:56;;;;;;;4.50;4.20;;;25.80;10.60;;;;;;5093963;28;20259;-83
2022/07/19 01:16:23;;;;;;;4.43;4.03;;;25.80;11.20;;;;;;5093339;28;20255;-76
2022/07/19 01:18:50;;;;;;;4.78;4.40;;;25.80;11.30;;;;;;5093599;28;20229;-75
2022/07/19 01:21:21;;;;;;;4.53;4.22;;;25.80;12.40;;;;;;5093088;28;20733;-78
2022/07/19 01:23:48;;;;;;;4.50;4.13;;;25.70;36.50;;;;;;5094113;28;20210;-77
2022/07/19 01:26:16;;;;;;;4.82;4.43;;;25.70;13.70;;;;;;5086288;28;20206;-74
2022/07/19 01:28:44;;;;;;;4.88;4.43;;;25.80;13.80;;;;;;5079429;28;20283;-70
2022/07/19 01:31:11;;;;;;;4.53;4.22;;;25.80;39.90;;;;;;5082262;28;20237;-77
2022/07/19 01:33:42;;;;;;;5.13;4.72;;;25.60;16.20;;;;;;5082246;28;20620;-75
2022/07/19 01:36:09;;;;;;;4.47;4.18;;;25.70;16.40;;;;;;5092854;28;20210;-76
2022/07/19 01:38:38;;;;;;;4.85;4.45;;;25.60;16.20;;;;;;5088820;28;20230;-79
2022/07/19 01:41:05;;;;;;;5.43;4.90;;;25.60;17.00;;;;;;5089117;28;20205;-73
2022/07/19 01:43:33;;;;;;;4.78;4.28;;;25.60;17.30;;;;;;5093065;28;20214;-69
2022/07/19 01:46:01;;;;;;;5.88;5.47;;;25.60;18.50;;;;;;5078173;28;20576;-77
2022/07/19 01:48:28;;;;;;;5.00;4.60;;;25.40;19.90;;;;;;5093582;28;20247;-79
2022/07/19 01:50:56;;;;;;;5.38;4.95;;;25.30;20.50;;;;;;5093194;28;20846;-69
2022/07/19 01:53:23;;;;;;;6.45;5.55;;;25.40;22.20;;;;;;5092757;28;20205;-75
2022/07/19 01:55:51;;;;;;;5.65;5.13;;;25.40;21.70;;;;;;5093001;28;20279;-77
2022/07/19 01:58:18;;;;;;;5.60;5.15;;;25.60;23.90;;;;;;5092711;28;20631;-69
2022/07/19 02:00:45;;;;;;;6.03;5.28;;;25.50;25.60;;;;;;5093104;28;20625;-81
2022/07/19 02:03:12;;;;;;;6.60;4.88;;;25.40;53.20;;;;;;5078405;28;20625;-69
2022/07/19 02:05:39;;;;;;;5.05;4.65;;;25.30;26.80;;;;;;5093110;28;20209;-78
2022/07/19 02:08:06;;;;;;;5.47;5.07;;;25.30;27.30;;;;;;5091221;28;20665;-70
2022/07/19 02:10:34;;;;;;;4.97;4.63;;;25.20;28.10;;;;;;5083357;28;20216;-69
2022/07/19 02:13:03;;;;;;;5.32;4.93;;;25.40;28.90;;;;;;5079245;28;20222;-69
2022/07/19 02:15:30;;;;;;;4.80;4.40;;;25.40;29.60;;;;;;5077167;28;20730;-76
2022/07/19 02:17:57;;;;;;;5.57;5.20;;;25.40;30.90;;;;;;5077707;28;20318;-79
2022/07/19 02:20:24;;;;;;;5.30;4.80;;;25.30;31.40;;;;;;5086347;28;20202;-79
2022/07/19 02:22:52;;;;;;;8.52;5.18;;;25.20;30.60;;;;;;5092658;28;20209;-82
2022/07/19 02:25:19;;;;;;;4.93;4.55;;;25.20;32.10;;;;;;5086644;28;20791;-69
2022/07/19 02:27:46;;;;;;;7.07;6.10;;;25.30;30.90;;;;;;5073294;28;20588;-80
2022/07/19 02:30:17;;;;;;;5.07;4.68;;;25.30;30.80;;;;;;5079417;28;20274;-76
2022/07/19 02:32:44;;;;;;;6.40;5.80;;;25.30;30.90;;;;;;5079027;28;20213;-79
2022/07/19 02:35:12;;;;;;;5.68;5.28;;;25.20;31.20;;;;;;5074163;28;20390;-81
2022/07/19 02:37:40;;;;;;;6.78;6.20;;;25.00;32.60;;;;;;5074800;28;20233;-76
2022/07/19 02:40:08;;;;;;;6.28;5.68;;;25.10;31.60;;;;;;5086740;28;20203;-79
2022/07/19 02:42:36;;;;;;;7.93;6.85;;;25.00;33.80;;;;;;5072674;28;20663;-79
2022/07/19 02:45:03;;;;;;;7.20;6.15;;;24.80;39.60;;;;;;5074813;28;20286;-77
2022/07/19 02:47:32;;;;;;;6.35;5.72;;;24.80;39.70;;;;;;5074007;28;20259;-76
2022/07/19 02:49:59;;;;;;;6.88;6.18;;;24.90;39.30;;;;;;5077960;28;20205;-74
2022/07/19 02:52:26;;;;;;;6.82;6.32;;;24.80;42.40;;;;;;5076108;28;20208;-80
2022/07/19 02:54:53;;;;;;;6.85;6.20;;;24.70;42.60;;;;;;5075526;28;20260;-78
2022/07/19 02:57:20;;;;;;;6.97;6.43;;;24.70;42.90;;;;;;5085512;28;20206;-79
2022/07/19 02:59:47;;;;;;;7.00;6.47;;;24.60;44.90;;;;;;5072523;28;20206;-76
2022/07/19 03:02:13;;;;;;;7.40;6.78;;;24.50;47.50;;;;;;5072221;28;20332;-81
2022/07/19 03:04:42;;;;;;;6.80;6.32;;;24.40;48.40;;;;;;5074036;28;20202;-70
2022/07/19 03:07:09;;;;;;;7.07;6.38;;;24.50;49.50;;;;;;5075513;28;20240;-79
2022/07/19 03:09:36;;;;;;;6.95;6.45;;;24.40;50.90;;;;;;5074556;28;20630;-77
2022/07/19 03:12:03;;;;;;;7.72;7.22;;;24.30;51.90;;;;;;5081168;28;20263;-80
2022/07/19 03:14:30;;;;;;;8.10;7.40;;;24.40;53.50;;;;;;5071027;28;20206;-80
2022/07/19 03:16:57;;;;;;;8.32;7.47;;;24.40;54.10;;;;;;5070016;28;20624;-80
2022/07/19 03:19:26;;;;;;;7.05;6.45;;;24.40;56.70;;;;;;5070077;28;20256;-80
2022/07/19 03:21:54;;;;;;;7.93;7.10;;;24.30;57.20;;;;;;5070543;28;20677;-77
2022/07/19 03:24:21;;;;;;;9.10;8.07;;;24.20;89.20;;;;;;5070401;28;20641;-80
2022/07/19 03:26:48;;;;;;;8.40;7.18;;;24.20;59.10;;;;;;5071003;28;20677;-76
2022/07/19 03:29:15;;;;;;;7.55;6.95;;;24.20;60.10;;;;;;5071326;28;20568;-80
2022/07/19 03:31:42;;;;;;;7.10;6.50;;;24.30;61.60;;;;;;5091585;28;20201;-76
2022/07/19 03:34:09;;;;;;;7.90;7.30;;;24.20;62.30;;;;;;5091076;28;20263;-80
2022/07/19 03:36:36;;;;;;;6.57;6.18;;;24.30;62.80;;;;;;5091191;28;20262;-76
2022/07/19 03:39:05;;;;;;;8.02;7.25;;;24.30;63.20;;;;;;5090200;28;20236;-78
2022/07/19 03:41:32;;;;;;;6.93;6.30;;;24.30;62.50;;;;;;5091211;28;20219;-77
2022/07/19 03:43:59;;;;;;;7.70;7.20;;;24.30;63.50;;;;;;5090760;28;20263;-71
2022/07/19 03:46:28;;;;;;;7.32;6.72;;;24.40;64.30;;;;;;5091296;28;20288;-80
2022/07/19 03:48:55;;;;;;;7.57;7.00;;;24.40;64.20;;;;;;5091420;28;20211;-80
2022/07/19 03:51:22;;;;;;;7.10;6.60;;;24.30;66.00;;;;;;5090490;28;20363;-80
2022/07/19 03:53:49;;;;;;;7.43;6.80;;;24.30;66.20;;;;;;5091053;28;20639;-76
2022/07/19 03:56:20;;;;;;;7.65;6.90;;;24.40;66.80;;;;;;5090596;28;20206;-77
2022/07/19 03:58:48;;;;;;;8.30;6.53;;;24.30;67.40;;;;;;5090761;28;20232;-81
2022/07/19 04:01:15;;;;;;;7.97;7.15;;;24.30;67.50;;;;;;5090748;28;20255;-79
2022/07/19 04:03:42;;;;;;;6.60;6.10;;;24.30;69.30;;;;;;5090854;28;20209;-79
2022/07/19 04:06:12;;;;;;;8.02;6.38;;;24.30;68.00;;;;;;5090317;28;20210;-79
2022/07/19 04:08:40;;;;;;;5.97;5.57;;;24.40;68.40;;;;;;5090727;28;20201;-79
2022/07/19 04:11:07;;;;;;;8.52;6.25;;;24.50;69.60;;;;;;5090378;28;20258;-83
2022/07/19 04:13:37;;;;;;;7.60;7.10;;;24.30;68.60;;;;;;5090270;28;20213;-81
2022/07/19 04:16:05;;;;;;;6.63;6.10;;;24.40;69.50;;;;;;5090774;28;20205;-83
2022/07/19 04:18:32;;;;;;;7.05;6.45;;;24.30;69.80;;;;;;5090746;28;20233;-77
2022/07/19 04:20:59;;;;;;;6.07;5.68;;;24.40;71.70;;;;;;5090804;28;20730;-77
2022/07/19 04:23:26;;;;;;;6.35;5.75;;;24.50;72.00;;;;;;5090641;28;20209;-82
2022/07/19 04:25:53;;;;;;;6.32;5.82;;;24.50;70.90;;;;;;5090302;28;20213;-78
2022/07/19 04:28:20;;;;;;;6.28;5.78;;;24.60;70.80;;;;;;5086224;28;20202;-81
2022/07/19 04:30:48;;;;;;;7.00;6.22;;;24.60;70.90;;;;;;5088458;28;20209;-81
2022/07/19 04:33:16;;;;;;;6.68;6.15;;;24.40;71.60;;;;;;5080351;28;20254;-80
2022/07/19 04:35:43;;;;;;;7.00;6.50;;;24.30;72.90;;;;;;5094573;28;20209;-76
2022/07/19 04:38:11;;;;;;;6.32;5.82;;;24.20;72.80;;;;;;5093730;28;20217;-76
2022/07/19 04:40:38;;;;;;;6.20;5.70;;;24.20;72.40;;;;;;5094884;28;20335;-76
2022/07/19 04:43:06;;;;;;;6.47;5.97;;;24.40;74.60;;;;;;5094431;28;20288;-74
2022/07/19 04:45:33;;;;;;;5.68;5.20;;;24.50;71.60;;;;;;5094381;28;20646;-77
2022/07/19 04:48:02;;;;;;;5.70;5.35;;;24.50;75.00;;;;;;5094135;28;20213;-75
2022/07/19 04:50:29;;;;;;;6.32;5.82;;;24.50;71.90;;;;;;5094599;28;20198;-70
2022/07/19 04:52:55;;;;;;;7.53;5.78;;;24.40;76.30;;;;;;5094149;28;20543;-69
2022/07/19 04:55:22;;;;;;;6.63;6.15;;;24.50;73.90;;;;;;5093841;28;20205;-72
2022/07/19 04:57:49;;;;;;;9.35;5.55;;;24.50;74.00;;;;;;5093785;28;20218;-72
2022/07/19 05:00:17;;;;;;;6.28;5.78;;;24.60;75.20;;;;;;5093660;28;20210;-70
2022/07/19 05:02:44;;;;;;;6.30;5.80;;;24.50;75.60;;;;;;5094084;28;20235;-70
2022/07/19 05:05:13;;;;;;;7.25;6.65;;;24.60;75.00;;;;;;5093351;28;20213;-70
2022/07/19 05:07:41;;;;;;;5.38;5.07;;;24.40;76.50;;;;;;5094530;28;20202;-70
2022/07/19 05:10:09;;;;;;;6.07;5.47;;;24.50;76.70;;;;;;5093365;28;20243;-70
2022/07/19 05:12:35;;;;;;;6.32;5.82;;;24.60;77.10;;;;;;5093772;28;20231;-71
2022/07/19 05:15:03;;;;;;;5.95;5.55;;;24.60;76.60;;;;;;5093676;28;20742;-70
2022/07/19 05:17:30;;;;;;;6.45;5.95;;;24.60;76.90;;;;;;5093997;28;20205;-70
2022/07/19 05:19:57;;;;;;;5.63;5.22;;;24.80;77.00;;;;;;5093876;28;20291;-69
2022/07/19 05:22:25;;;;;;;6.30;5.70;;;25.10;75.70;;;;;;5093270;28;20201;-69
2022/07/19 05:24:53;;;;;;;6.40;5.88;;;25.10;75.10;;;;;;5093996;28;20206;-70
2022/07/19 05:27:20;;;;;;;8.10;7.47;;;25.10;75.20;;;;;;5092960;28;20672;-69
2022/07/19 05:29:47;;;;;;;6.43;5.72;;;25.10;75.40;;;;;;5079190;28;20270;-72
2022/07/19 05:32:13;;;;;;;6.15;5.57;;;25.10;76.40;;;;;;5093203;28;20205;-72
2022/07/19 05:34:41;;;;;;;6.05;5.65;;;25.00;76.50;;;;;;5093645;28;20202;-69
2022/07/19 05:37:08;;;;;;;6.72;6.13;;;25.10;77.00;;;;;;5093391;28;20205;-70
2022/07/19 05:39:36;;;;;;;7.65;5.95;;;25.10;76.90;;;;;;5092337;28;20278;-68
2022/07/19 05:42:03;;;;;;;5.80;5.43;;;25.00;76.40;;;;;;5092805;28;20585;-70
2022/07/19 05:44:30;;;;;;;6.10;5.47;;;24.90;78.10;;;;;;5093155;28;20206;-70
2022/07/19 05:46:57;;;;;;;7.28;6.78;;;24.90;78.50;;;;;;5093483;28;20254;-69
2022/07/19 05:49:24;;;;;;;6.10;5.65;;;25.10;79.50;;;;;;5087692;28;20217;-69
2022/07/19 05:51:51;;;;;;;5.88;5.40;;;25.10;78.70;;;;;;5089579;28;20246;-69
2022/07/19 05:54:18;;;;;;;6.30;5.80;;;25.00;79.10;;;;;;5091346;28;20258;-76
2022/07/19 05:56:46;;;;;;;6.95;6.35;;;25.30;78.60;;;;;;5090385;28;20206;-76
2022/07/19 05:59:13;;;;;;;6.10;5.70;;;25.20;79.60;;;;;;5092409;28;20229;-74
2022/07/19 06:01:40;;;;;;;6.85;6.25;;;25.30;78.50;;;;;;5091321;28;20205;-74
2022/07/19 06:04:07;;;;;;;6.55;6.00;;;25.40;78.70;;;;;;5082998;28;20246;-73
2022/07/19 06:06:35;;;;;;;7.00;6.07;;;25.30;84.10;;;;;;5071808;28;20214;-71
2022/07/19 06:09:04;;;;;;;6.07;5.63;;;25.50;79.50;;;;;;5070464;28;20206;-72
2022/07/19 06:11:32;;;;;;;5.80;5.30;;;25.60;80.10;;;;;;5071364;28;20202;-73
2022/07/19 06:14:01;;;;;;;6.95;6.38;;;25.70;79.10;;;;;;5075078;28;20248;-71
2022/07/19 06:16:28;;;;;;;6.13;5.38;;;25.50;99.50;;;;;;5072955;28;20589;-74
2022/07/19 06:18:55;;;;;;;6.30;5.80;;;25.40;80.50;;;;;;5070762;28;20287;-70
2022/07/19 06:21:22;;;;;;;5.18;4.88;;;25.60;79.10;;;;;;5073219;28;20206;-70
2022/07/19 06:23:49;;;;;;;7.25;6.07;;;25.50;79.40;;;;;;5071154;28;20210;-70
2022/07/19 06:26:17;;;;;;;6.15;5.75;;;25.60;80.00;;;;;;5071293;28;20657;-68
2022/07/19 06:28:44;;;;;;;6.40;5.97;;;25.40;79.70;;;;;;5071913;28;20210;-70
2022/07/19 06:31:14;;;;;;;5.78;5.28;;;25.30;86.80;;;;;;5077314;28;20197;-70
2022/07/19 06:33:42;;;;;;;6.95;6.28;;;25.50;81.20;;;;;;5092368;28;20630;-72
2022/07/19 06:36:10;;;;;;;6.10;5.65;;;25.50;81.20;;;;;;5091853;28;20255;-73
2022/07/19 06:38:38;;;;;;;6.15;5.75;;;25.60;80.70;;;;;;5091945;28;20233;-74
2022/07/19 06:41:06;;;;;;;6.68;6.05;;;25.60;81.70;;;;;;5091419;28;20690;-73
2022/07/19 06:43:32;;;;;;;6.63;5.65;;;25.60;80.80;;;;;;5092483;28;20209;-70
2022/07/19 06:45:59;;;;;;;6.65;5.75;;;25.80;80.00;;;;;;5092299;28;20205;-72
2022/07/19 06:48:28;;;;;;;6.78;6.15;;;25.60;81.40;;;;;;5092168;28;20231;-72
2022/07/19 06:50:55;;;;;;;6.57;6.00;;;25.60;80.60;;;;;;5091341;28;20243;-74
2022/07/19 06:53:22;;;;;;;6.45;5.93;;;25.60;81.50;;;;;;5091460;28;20209;-72
2022/07/19 06:55:49;;;;;;;7.47;6.40;;;25.30;81.10;;;;;;5091921;28;20221;-73
2022/07/19 06:58:16;;;;;;;8.40;7.68;;;25.40;82.60;;;;;;5091170;28;20201;-73
2022/07/19 07:00:45;;;;;;;7.32;6.63;;;25.50;82.70;;;;;;5091754;28;20241;-71
2022/07/19 07:03:12;;;;;;;6.35;5.88;;;25.70;84.60;;;;;;5091238;28;20201;-72
2022/07/19 07:05:40;;;;;;;6.72;6.05;;;25.50;81.80;;;;;;5091779;28;20209;-73
2022/07/19 07:08:07;;;;;;;6.72;5.47;;;25.70;81.60;;;;;;5090666;28;20664;-72
2022/07/19 07:10:34;;;;;;;7.22;6.72;;;25.60;81.20;;;;;;5091868;28;20216;-71
2022/07/19 07:13:01;;;;;;;6.55;5.95;;;25.60;91.50;;;;;;5091412;28;20266;-72
2022/07/19 07:15:29;;;;;;;7.43;6.70;;;25.50;83.20;;;;;;5091775;28;20557;-74
2022/07/19 07:17:56;;;;;;;6.15;5.70;;;25.60;83.90;;;;;;5091956;28;20205;-75
2022/07/19 07:20:23;;;;;;;7.50;6.90;;;25.80;80.90;;;;;;5090812;28;20245;-73
2022/07/19 07:22:51;;;;;;;6.90;6.35;;;25.80;80.90;;;;;;5090837;28;20206;-74
2022/07/19 07:25:18;;;;;;;6.38;5.85;;;25.90;81.20;;;;;;5081250;28;20198;-71
2022/07/19 07:27:45;;;;;;;7.03;6.53;;;26.00;81.20;;;;;;5082472;28;20202;-72
2022/07/19 07:30:12;;;;;;;6.93;6.43;;;25.90;80.90;;;;;;5079657;28;20269;-73
2022/07/19 07:32:39;;;;;;;7.53;6.30;;;25.80;82.20;;;;;;5091108;28;20661;-71
2022/07/19 07:35:06;;;;;;;7.20;6.53;;;25.80;83.70;;;;;;5090801;28;20254;-72
2022/07/19 07:37:33;;;;;;;6.32;5.93;;;25.70;83.40;;;;;;5091173;28;20259;-71
2022/07/19 07:40:02;;;;;;;6.95;6.30;;;26.00;82.60;;;;;;5090898;28;20225;-73
2022/07/19 07:42:31;;;;;;;6.72;6.28;;;26.10;80.60;;;;;;5079648;28;20629;-73
2022/07/19 07:44:59;;;;;;;8.25;7.45;;;25.90;81.70;;;;;;5085788;28;20206;-70
2022/07/19 07:47:26;;;;;;;6.97;6.18;;;26.00;91.70;;;;;;5088093;28;20669;-72
2022/07/19 07:49:53;;;;;;;7.28;6.78;;;26.00;81.40;;;;;;5084272;28;20282;-72
2022/07/19 07:52:20;;;;;;;7.82;7.28;;;26.00;82.10;;;;;;5090457;28;20197;-71
2022/07/19 07:54:48;;;;;;;6.97;6.47;;;25.90;80.70;;;;;;5077716;28;20271;-74
2022/07/19 07:57:17;;;;;;;6.40;5.95;;;26.20;79.60;;;;;;5074668;28;20198;-71
2022/07/19 07:59:44;;;;;;;6.93;6.38;;;26.30;81.50;;;;;;5074304;28;20230;-71
2022/07/19 08:02:11;;;;;;;7.65;7.13;;;26.30;80.50;;;;;;5073491;28;20202;-73
2022/07/19 08:04:37;;;;;;;8.93;6.35;;;26.30;80.70;;;;;;5073032;28;20264;-73
2022/07/19 08:07:04;;;;;;;6.28;5.80;;;26.40;82.20;;;;;;5076175;28;20210;-73
2022/07/19 08:09:32;;;;;;;6.28;5.78;;;26.60;80.80;;;;;;5073522;28;20315;-73
2022/07/19 08:11:59;;;;;;;6.90;6.30;;;26.60;79.30;;;;;;5085820;28;20216;-73
2022/07/19 08:14:27;;;;;;;6.25;5.65;;;26.30;80.40;;;;;;5073953;28;20252;-73
2022/07/19 08:16:54;;;;;;;7.70;6.28;;;26.60;81.80;;;;;;5077563;28;20723;-73
2022/07/19 08:19:21;;;;;;;6.97;6.28;;;26.70;80.30;;;;;;5074299;28;20790;-73
2022/07/19 08:21:48;;;;;;;6.13;5.63;;;26.60;81.00;;;;;;5069611;28;20674;-73
2022/07/19 08:24:15;;;;;;;5.93;5.45;;;26.50;78.20;;;;;;5068898;28;20202;-74
2022/07/19 08:26:42;;;;;;;5.63;5.18;;;26.70;81.10;;;;;;5070182;28;20255;-73
2022/07/19 08:29:09;;;;;;;5.75;5.28;;;26.90;80.20;;;;;;5069426;28;20287;-73
2022/07/19 08:31:38;;;;;;;6.00;5.60;;;27.20;77.60;;;;;;5077182;28;20202;-72
2022/07/19 08:34:05;;;;;;;5.38;4.97;;;27.00;77.30;;;;;;5080705;28;20206;-74
2022/07/19 08:36:32;;;;;;;7.28;5.65;;;26.80;77.40;;;;;;5079934;28;20530;-75
2022/07/19 08:38:59;;;;;;;5.60;5.22;;;26.90;78.90;;;;;;5077141;28;20665;-78
2022/07/19 08:41:26;;;;;;;6.90;6.30;;;27.00;77.90;;;;;;5078362;28;20214;-74
2022/07/19 08:43:53;;;;;;;6.93;5.88;;;27.00;76.80;;;;;;5077365;28;20491;-75
2022/07/19 08:46:21;;;;;;;6.30;5.75;;;27.10;76.60;;;;;;5078904;28;20690;-77
2022/07/19 08:48:50;;;;;;;6.53;5.78;;;27.20;76.40;;;;;;5077044;28;20285;-83
2022/07/19 08:51:19;;;;;;;6.10;5.60;;;27.20;75.80;;;;;;5080728;28;20673;-85
2022/07/19 08:53:47;;;;;;;7.40;6.68;;;27.40;76.10;;;;;;5076240;28;20732;-79
2022/07/19 08:58:58;;;;;;;6.13;5.53;;;27.20;74.30;;;;;;5078510;28;20727;-77
2022/07/19 09:01:25;;;;;;;6.72;6.10;;;27.30;76.20;;;;;;5081998;28;20262;-76
2022/07/19 09:04:12;;;;;;;6.72;5.60;;;27.40;74.60;;;;;;5076494;28;20272;-76
2022/07/19 09:06:47;;;;;;;6.43;5.75;;;27.30;76.30;;;;;;5077213;28;20241;-76
2022/07/19 09:09:16;;;;;;;7.70;6.65;;;27.60;74.60;;;;;;5077367;28;20202;-70
2022/07/19 09:11:50;;;;;;;6.97;6.28;;;27.70;79.40;;;;;;5068817;28;20221;-70
2022/07/19 09:14:19;;;;;;;7.05;6.55;;;27.50;77.00;;;;;;5070493;28;20198;-70
2022/07/19 09:16:54;;;;;;;7.38;6.78;;;27.40;77.90;;;;;;5073284;28;20620;-70
2022/07/19 09:19:23;;;;;;;8.45;7.28;;;27.60;78.50;;;;;;5072688;28;20507;-72
2022/07/19 09:22:00;;;;;;;7.32;6.60;;;27.80;79.00;;;;;;5073582;28;20202;-72
2022/07/19 09:24:28;;;;;;;8.15;7.45;;;28.00;78.90;;;;;;5073623;28;20206;-71
2022/07/19 09:27:03;;;;;;;7.38;6.78;;;28.00;80.20;;;;;;5073683;28;20210;-70
2022/07/19 09:29:32;;;;;;;8.15;7.05;;;27.90;79.00;;;;;;5076479;28;20209;-71
2022/07/19 09:32:15;;;;;;;6.50;6.00;;;27.90;79.30;;;;;;5093367;28;20201;-70
2022/07/19 09:34:50;;;;;;;8.07;7.15;;;28.00;79.60;;;;;;5091653;28;20202;-70
2022/07/19 09:37:20;;;;;;;7.80;6.95;;;28.40;71.70;;;;;;5092908;28;20201;-70
2022/07/19 09:39:49;;;;;;;8.68;6.63;;;28.50;72.70;;;;;;5093162;28;20270;-70
2022/07/19 09:42:19;;;;;;;7.05;6.30;;;28.40;74.30;;;;;;5092931;28;20205;-70
2022/07/19 09:44:46;;;;;;;6.32;5.93;;;28.50;80.70;;;;;;5093459;28;20270;-71
2022/07/19 09:47:13;;;;;;;7.25;6.65;;;28.40;68.90;;;;;;5092661;28;20742;-71
2022/07/19 09:49:40;;;;;;;7.18;6.05;;;28.30;68.90;;;;;;5092984;28;20206;-71
2022/07/19 09:52:10;;;;;;;6.55;6.13;;;28.50;70.30;;;;;;5092909;28;20247;-72
2022/07/19 09:54:40;;;;;;;6.43;5.93;;;28.70;70.30;;;;;;5092891;28;20210;-71
2022/07/19 09:57:09;;;;;;;6.70;6.07;;;29.20;68.00;;;;;;5092750;28;20210;-71
2022/07/19 09:59:44;;;;;;;6.15;5.60;;;29.20;70.00;;;;;;5092874;28;20217;-71
2022/07/19 10:02:13;;;;;;;6.63;5.97;;;30.60;69.90;;;;;;5092334;28;20205;-71
2022/07/19 10:04:40;;;;;;;5.32;4.82;;;32.00;67.00;;;;;;5092802;28;20209;-72
2022/07/19 10:07:07;;;;;;;6.63;6.03;;;34.40;67.70;;;;;;5092279;28;20653;-72
2022/07/19 10:09:37;;;;;;;5.97;5.55;;;34.50;62.90;;;;;;5093173;28;20231;-72
2022/07/19 10:12:04;;;;;;;5.68;5.22;;;33.70;61.10;;;;;;5092060;28;20209;-72
2022/07/19 10:14:31;;;;;;;5.90;5.40;;;33.90;59.60;;;;;;5093007;28;20213;-72
2022/07/19 10:17:05;;;;;;;6.30;5.70;;;34.50;62.10;;;;;;5092708;28;20204;-70
2022/07/19 10:19:38;;;;;;;7.20;6.30;;;34.40;58.90;;;;;;5092532;28;20664;-70
2022/07/19 10:22:06;;;;;;;5.03;4.70;;;36.10;61.50;;;;;;5091952;28;20262;-71
2022/07/19 10:24:50;;;;;;;6.28;5.80;;;37.00;67.20;;;;;;5092344;28;20209;-73
2022/07/19 10:27:20;;;;;;;5.30;4.90;;;36.50;62.40;;;;;;5087435;28;20197;-72
2022/07/19 10:29:47;;;;;;;5.90;5.43;;;39.10;68.70;;;;;;5077340;28;20205;-73
2022/07/19 10:32:15;;;;;;;6.88;6.30;;;39.90;72.50;;;;;;5092005;28;20250;-71
2022/07/19 10:34:45;;;;;;;6.38;5.80;;;39.30;73.70;;;;;;5092376;28;20352;-71
2022/07/19 10:37:13;;;;;;;6.47;5.88;;;40.30;72.80;;;;;;5091952;28;20225;-71
2022/07/19 10:39:41;;;;;;;6.15;5.72;;;39.10;72.20;;;;;;5092023;28;20738;-70
2022/07/19 10:42:16;;;;;;;7.35;6.55;;;37.90;63.40;;;;;;5087321;28;20231;-70
2022/07/19 10:45:14;;;;;;;6.72;6.22;;;35.90;56.70;;;;;;5091002;28;20694;-71
2022/07/19 10:48:08;;;;;;;6.20;5.68;;;32.90;51.30;;;;;;5092291;28;20201;-70
2022/07/19 10:50:49;;;;;;;6.53;5.97;;;32.20;51.80;;;;;;5091972;28;20765;-72
2022/07/19 10:53:46;;;;;;;6.85;6.35;;;32.00;52.00;;;;;;5091382;28;20632;-71
2022/07/19 10:56:17;;;;;;;7.55;6.93;;;31.80;53.00;;;;;;5091532;28;20330;-70
2022/07/19 10:58:53;;;;;;;6.63;6.13;;;31.80;52.30;;;;;;5091719;28;20644;-70
2022/07/19 11:01:21;;;;;;;5.80;5.40;;;31.50;53.00;;;;;;5091288;28;20232;-70
2022/07/19 11:03:50;;;;;;;6.35;5.95;;;31.90;51.90;;;;;;5091891;28;20205;-70
2022/07/19 11:06:22;;;;;;;7.25;6.18;;;31.70;51.40;;;;;;5091771;28;20272;-70
2022/07/19 11:08:53;;;;;;;7.18;6.50;;;31.60;51.50;;;;;;5091688;28;20204;-70
2022/07/19 11:11:20;;;;;;;6.93;6.32;;;31.90;51.90;;;;;;5091057;28;20204;-70
2022/07/19 11:13:48;;;;;;;7.15;6.57;;;31.80;53.10;;;;;;5091389;28;20208;-71
2022/07/19 11:16:17;;;;;;;6.70;6.30;;;31.50;50.60;;;;;;5091162;28;20266;-70
2022/07/19 11:18:45;;;;;;;7.10;6.38;;;31.50;51.80;;;;;;5091395;28;20749;-69
2022/07/19 11:21:13;;;;;;;6.60;6.10;;;31.90;52.80;;;;;;5091276;28;20273;-69
2022/07/19 11:23:40;;;;;;;6.68;6.05;;;31.90;53.20;;;;;;5091381;28;20205;-71
2022/07/19 11:26:09;;;;;;;7.05;6.55;;;32.20;51.60;;;;;;5091099;28;20197;-70
2022/07/19 11:28:38;;;;;;;6.80;6.30;;;31.90;50.90;;;;;;5081155;28;20267;-71
2022/07/19 11:31:13;;;;;;;7.72;6.43;;;31.90;51.90;;;;;;5086965;28;20258;-71
2022/07/19 11:33:42;;;;;;;7.32;6.72;;;32.00;51.20;;;;;;5091242;28;20257;-71
2022/07/19 11:36:10;;;;;;;8.30;7.68;;;32.00;52.30;;;;;;5090073;28;20262;-71
2022/07/19 11:38:42;;;;;;;7.85;7.15;;;32.10;52.60;;;;;;5091260;28;20204;-70
2022/07/19 11:41:14;;;;;;;6.60;5.95;;;32.10;51.20;;;;;;5090326;28;20224;-71
2022/07/19 11:43:41;;;;;;;7.63;6.88;;;32.00;49.70;;;;;;5090870;28;20244;-70
2022/07/19 11:46:09;;;;;;;7.10;6.60;;;32.30;51.00;;;;;;5090668;28;20680;-71
2022/07/19 11:48:36;;;;;;;6.82;6.22;;;32.30;50.10;;;;;;5091120;28;20208;-70
2022/07/19 11:51:08;;;;;;;6.38;5.80;;;32.70;53.20;;;;;;5090582;28;20208;-71
2022/07/19 11:53:36;;;;;;;7.55;6.93;;;33.00;51.30;;;;;;5090825;28;20205;-71
2022/07/19 11:56:05;;;;;;;7.38;6.65;;;32.80;49.80;;;;;;5090819;28;20200;-69
2022/07/19 11:58:33;;;;;;;6.88;6.32;;;32.20;47.50;;;;;;5090514;28;20250;-71
2022/07/19 12:01:05;;;;;;;6.75;6.28;;;32.20;48.40;;;;;;5090607;28;20281;-69
2022/07/19 12:03:32;;;;;;;6.25;5.85;;;32.40;48.40;;;;;;5090869;28;20204;-71
2022/07/19 12:06:01;;;;;;;7.18;6.68;;;32.80;79.70;;;;;;5091161;28;20209;-70
2022/07/19 12:08:38;;;;;;;6.70;6.13;;;33.00;51.20;;;;;;5090802;28;20204;-71
2022/07/19 12:11:20;;;;;;;7.03;6.40;;;33.20;49.20;;;;;;5090299;28;20208;-70
2022/07/19 12:13:47;;;;;;;7.40;6.70;;;33.10;48.50;;;;;;5090755;28;20278;-71
2022/07/19 12:16:14;;;;;;;9.05;5.93;;;33.00;47.50;;;;;;5090222;28;20266;-70
2022/07/19 12:18:54;;;;;;;6.38;5.88;;;33.30;50.00;;;;;;5090452;28;20591;-72
2022/07/19 12:21:24;;;;;;;6.78;6.25;;;33.50;48.80;;;;;;5090145;28;20229;-72
2022/07/19 12:24:20;;;;;;;6.75;5.90;;;33.50;48.80;;;;;;5090602;28;20211;-73
2022/07/19 12:27:01;;;;;;;5.80;5.30;;;33.80;47.50;;;;;;5090217;28;20592;-73
2022/07/19 12:29:31;;;;;;;6.47;5.97;;;33.90;47.50;;;;;;5076432;28;20258;-73
2022/07/19 12:32:00;;;;;;;5.53;5.18;;;33.80;48.30;;;;;;5090996;28;20208;-72
2022/07/19 12:34:28;;;;;;;5.50;5.10;;;33.70;46.90;;;;;;5090717;28;20688;-72
2022/07/19 12:36:55;;;;;;;5.97;5.47;;;34.00;47.30;;;;;;5090639;28;20266;-72
2022/07/19 12:39:27;;;;;;;5.65;5.25;;;34.10;46.70;;;;;;5089823;28;20254;-73
2022/07/19 12:42:08;;;;;;;4.82;4.57;;;34.10;45.50;;;;;;5090446;28;20655;-72
2022/07/19 12:44:35;;;;;;;5.00;4.65;;;33.80;44.30;;;;;;5083275;28;20253;-69
2022/07/19 12:47:03;;;;;;;6.32;5.72;;;34.00;45.10;;;;;;5090090;28;20200;-70
2022/07/19 12:49:44;;;;;;;6.00;5.40;;;34.20;43.20;;;;;;5092566;28;20677;-69
2022/07/19 12:52:11;;;;;;;5.55;5.15;;;34.00;42.60;;;;;;5094249;28;20207;-69
2022/07/19 12:54:39;;;;;;;5.25;4.90;;;34.00;43.00;;;;;;5094051;28;20204;-70
2022/07/19 12:57:07;;;;;;;4.88;4.45;;;33.80;41.90;;;;;;5093970;28;20258;-69